createdAt,value
2023-01-04T00:01:21.767Z,99998.00
2023-01-04T00:03:52.936Z,99996.00
2023-01-04T00:06:24.026Z,100002.00
2023-01-04T00:08:55.220Z,100000.00
2023-01-04T00:11:26.287Z,99999.00
2023-01-04T00:13:59.344Z,99988.00
2023-01-04T00:16:30.695Z,99990.00
2023-01-04T00:19:01.640Z,99994.00
2023-01-04T00:21:32.650Z,99984.00
2023-01-04T00:24:03.861Z,99981.00
2023-01-04T00:26:35.439Z,99968.00
2023-01-04T00:29:12.133Z,99977.00
2023-01-04T00:31:44.750Z,99971.00
2023-01-04T00:34:17.642Z,99951.00
2023-01-04T00:36:48.610Z,99946.00
2023-01-04T00:39:20.041Z,99938.00
2023-01-04T00:41:59.189Z,99938.00
2023-01-04T00:44:34.009Z,99943.00
2023-01-04T00:47:05.206Z,99929.00
2023-01-04T00:49:36.075Z,99936.00
2023-01-04T00:52:08.159Z,99931.00
2023-01-04T00:54:39.036Z,99932.00
2023-01-04T00:57:09.930Z,99951.00
2023-01-04T00:59:40.788Z,99935.00
2023-01-04T01:02:11.817Z,99926.00
2023-01-04T01:04:42.976Z,99924.00
2023-01-04T01:07:13.848Z,99934.00
2023-01-04T01:09:44.711Z,99932.00
2023-01-04T01:12:15.629Z,99932.00
2023-01-04T01:14:46.569Z,99959.00
2023-01-04T01:17:17.518Z,99940.00
2023-01-04T01:19:48.507Z,99936.00
2023-01-04T01:22:19.456Z,99926.00
2023-01-04T01:24:50.411Z,99921.00
2023-01-04T01:27:21.372Z,99925.00
2023-01-04T01:29:52.214Z,99930.00
2023-01-04T01:32:23.092Z,99926.00
2023-01-04T01:34:53.941Z,99932.00
2023-01-04T01:37:24.806Z,99937.00
2023-01-04T01:39:55.677Z,99944.00
2023-01-04T01:42:26.566Z,99936.00
2023-01-04T01:45:11.327Z,99946.00
2023-01-04T01:47:45.378Z,99950.00
2023-01-04T01:50:26.083Z,99943.00
2023-01-04T01:53:00.284Z,99953.00
2023-01-04T01:55:34.052Z,99948.00
2023-01-04T01:58:08.480Z,99959.00
2023-01-04T02:00:39.772Z,99944.00
2023-01-04T02:03:18.519Z,99946.00
2023-01-04T02:05:54.191Z,99932.00
2023-01-04T02:08:26.064Z,99931.00
2023-01-04T02:10:57.340Z,99926.00
2023-01-04T02:13:50.659Z,99931.00
2023-01-04T02:16:46.281Z,99938.00
2023-01-04T02:20:04.551Z,99936.00
2023-01-04T02:23:59.096Z,99922.00
2023-01-04T02:27:13.436Z,99920.00
2023-01-04T02:30:14.104Z,99914.00
2023-01-04T02:32:56.835Z,99914.00
2023-01-04T02:36:04.401Z,99899.00
2023-01-04T02:39:22.570Z,99908.00
2023-01-04T02:42:04.355Z,99896.00
2023-01-04T02:44:57.368Z,99893.00
2023-01-04T02:47:52.252Z,99888.00
2023-01-04T02:50:38.258Z,99886.00
2023-01-04T02:53:20.454Z,99889.00
2023-01-04T02:56:35.437Z,99887.00
2023-01-04T02:59:27.985Z,99877.00
2023-01-04T03:03:07.014Z,99893.00
2023-01-04T03:06:20.284Z,99867.00
2023-01-04T03:09:04.617Z,99875.00
2023-01-04T03:12:02.413Z,99871.00
2023-01-04T03:14:51.511Z,99865.00
2023-01-04T03:17:24.945Z,99858.00
2023-01-04T03:19:58.397Z,99854.00
2023-01-04T03:23:05.182Z,99840.00
2023-01-04T03:26:03.792Z,99838.00
2023-01-04T03:28:56.970Z,99837.00
2023-01-04T03:31:57.070Z,99834.00
2023-01-04T03:34:47.502Z,99845.00
2023-01-04T03:37:43.885Z,99839.00
2023-01-04T03:40:49.682Z,99845.00
2023-01-04T03:44:09.468Z,99841.00
2023-01-04T03:47:11.425Z,99848.00
2023-01-04T03:49:57.416Z,99842.00
2023-01-04T03:52:31.200Z,99844.00
2023-01-04T03:55:05.285Z,99842.00
2023-01-04T03:57:37.028Z,99826.00
2023-01-04T04:00:16.322Z,99842.00
2023-01-04T04:02:48.777Z,99840.00
2023-01-04T04:05:44.187Z,99843.00
2023-01-04T04:08:29.932Z,99845.00
2023-01-04T04:11:38.398Z,99831.00
2023-01-04T04:14:09.321Z,99839.00
2023-01-04T04:16:40.353Z,99826.00
2023-01-04T04:19:11.418Z,99822.00
2023-01-04T04:21:42.442Z,99821.00
2023-01-04T04:24:24.624Z,99823.00
2023-01-04T04:26:56.271Z,99817.00
2023-01-04T04:29:27.109Z,99810.00
2023-01-04T04:31:58.168Z,99799.00
2023-01-04T04:34:29.086Z,99805.00
2023-01-04T04:36:59.975Z,99809.00
2023-01-04T04:39:30.907Z,99804.00
2023-01-04T04:42:01.841Z,99803.00
2023-01-04T04:44:34.615Z,99802.00
2023-01-04T04:47:05.518Z,99801.00
2023-01-04T04:49:36.370Z,99809.00
2023-01-04T04:52:07.320Z,99792.00
2023-01-04T04:54:38.370Z,99786.00
2023-01-04T04:57:09.259Z,99784.00
2023-01-04T04:59:40.195Z,99782.00
2023-01-04T05:02:11.257Z,99776.00
2023-01-04T05:04:42.377Z,99769.00
2023-01-04T05:07:14.156Z,99776.00
2023-01-04T05:09:45.015Z,99781.00
2023-01-04T05:12:34.387Z,99766.00
2023-01-04T05:15:05.967Z,99775.00
2023-01-04T05:17:36.862Z,99781.00
2023-01-04T05:20:08.564Z,99781.00
2023-01-04T05:22:41.169Z,99783.00
2023-01-04T05:25:12.346Z,99779.00
2023-01-04T05:27:43.593Z,99782.00
2023-01-04T05:30:35.372Z,99780.00
2023-01-04T05:33:07.305Z,99774.00
2023-01-04T05:35:38.302Z,99776.00
2023-01-04T05:38:09.253Z,99768.00
2023-01-04T05:40:40.550Z,99770.00
2023-01-04T05:43:13.811Z,99762.00
2023-01-04T05:45:49.954Z,99768.00
2023-01-04T05:48:22.807Z,99765.00
2023-01-04T05:50:54.188Z,99769.00
2023-01-04T05:53:25.140Z,99769.00
2023-01-04T05:55:55.983Z,99775.00
2023-01-04T05:58:26.879Z,99758.00
2023-01-04T06:00:57.912Z,99759.00
2023-01-04T06:03:28.826Z,99759.00
2023-01-04T06:06:00.033Z,99757.00
2023-01-04T06:08:30.894Z,99752.00
2023-01-04T06:11:01.815Z,99754.00
2023-01-04T06:13:32.738Z,99753.00
2023-01-04T06:16:03.732Z,99753.00
2023-01-04T06:18:34.603Z,99743.00
2023-01-04T06:21:05.496Z,99743.00
2023-01-04T06:23:36.366Z,99744.00
2023-01-04T06:26:07.251Z,99741.00
2023-01-04T06:28:40.998Z,99744.00
2023-01-04T06:31:13.084Z,99739.00
2023-01-04T06:33:44.016Z,99741.00
2023-01-04T06:36:20.141Z,99744.00
2023-01-04T06:38:53.658Z,99751.00
2023-01-04T06:41:24.982Z,99755.00
2023-01-04T06:43:55.840Z,99748.00
2023-01-04T06:46:26.995Z,99747.00
2023-01-04T06:48:58.256Z,99757.00
2023-01-04T06:51:30.275Z,99755.00
2023-01-04T06:54:01.159Z,99739.00
2023-01-04T06:56:32.383Z,99754.00
2023-01-04T06:59:03.268Z,99742.00
2023-01-04T07:01:34.272Z,99742.00
2023-01-04T07:04:05.245Z,99732.00
2023-01-04T07:06:37.088Z,99740.00
2023-01-04T07:09:07.926Z,99736.00
2023-01-04T07:11:38.795Z,99737.00
2023-01-04T07:14:09.689Z,99727.00
2023-01-04T07:16:40.687Z,99743.00
2023-01-04T07:19:11.593Z,99743.00
2023-01-04T07:21:42.583Z,99734.00
2023-01-04T07:24:13.597Z,99732.00
2023-01-04T07:26:44.498Z,99728.00
2023-01-04T07:29:16.904Z,99727.00
2023-01-04T07:31:51.172Z,99738.00
2023-01-04T07:34:25.250Z,99738.00
2023-01-04T07:36:56.424Z,99735.00
2023-01-04T07:39:27.287Z,99728.00
2023-01-04T07:41:58.209Z,99728.00
2023-01-04T07:44:29.369Z,99725.00
2023-01-04T07:47:00.262Z,99719.00
2023-01-04T07:49:31.276Z,99714.00
2023-01-04T07:52:02.442Z,99720.00
2023-01-04T07:54:33.424Z,99723.00
2023-01-04T07:57:04.457Z,99715.00
2023-01-04T07:59:35.340Z,99714.00
2023-01-04T08:02:06.561Z,99713.00
2023-01-04T08:04:37.706Z,99714.00
2023-01-04T08:07:08.587Z,99708.00
2023-01-04T08:09:39.471Z,99698.00
2023-01-04T08:12:10.328Z,99708.00
2023-01-04T08:14:41.206Z,99695.00
2023-01-04T08:17:12.095Z,99683.00
2023-01-04T08:19:43.020Z,99683.00
2023-01-04T08:22:14.592Z,99680.00
2023-01-04T08:24:45.514Z,99679.00
2023-01-04T08:27:16.391Z,99690.00
2023-01-04T08:29:47.296Z,99683.00
2023-01-04T08:32:18.163Z,99682.00
2023-01-04T08:34:49.084Z,99685.00
2023-01-04T08:37:20.505Z,99686.00
2023-01-04T08:39:51.544Z,99669.00
2023-01-04T08:42:30.632Z,99672.00
2023-01-04T08:45:02.507Z,99694.00
2023-01-04T08:47:33.917Z,99667.00
2023-01-04T08:50:10.272Z,99646.00
2023-01-04T08:52:42.689Z,99648.00
2023-01-04T08:55:16.773Z,99647.00
2023-01-04T08:57:49.686Z,99642.00
2023-01-04T09:00:21.794Z,99645.00
2023-01-04T09:02:52.827Z,99631.00
2023-01-04T09:05:25.988Z,99646.00
2023-01-04T09:07:56.911Z,99648.00
2023-01-04T09:10:28.266Z,99643.00
2023-01-04T09:12:59.311Z,99649.00
2023-01-04T09:15:30.361Z,99653.00
2023-01-04T09:18:31.466Z,99654.00
2023-01-04T09:20:57.212Z,99647.00
2023-01-04T09:23:29.043Z,99650.00
2023-01-04T09:26:14.637Z,99655.00
2023-01-04T09:28:45.740Z,99655.00
2023-01-04T09:31:20.701Z,99647.00
2023-01-04T09:36:45.069Z,99651.00
2023-01-04T09:39:22.270Z,99659.00
2023-01-04T09:41:57.385Z,99654.00
2023-01-04T09:47:43.431Z,99646.00
2023-01-04T09:50:33.859Z,99647.00
2023-01-04T09:53:17.216Z,99650.00
2023-01-04T09:55:52.760Z,99649.00
2023-01-04T09:58:40.267Z,99640.00
2023-01-04T10:01:19.519Z,99644.00
2023-01-04T10:04:12.792Z,99634.00
2023-01-04T10:06:43.955Z,99626.00
2023-01-04T10:09:17.167Z,99621.00
2023-01-04T10:12:09.404Z,99616.00
2023-01-04T10:14:59.754Z,99607.00
2023-01-04T10:21:25.236Z,99612.00
2023-01-04T10:23:56.289Z,99602.00
2023-01-04T10:26:32.221Z,99590.00
2023-01-04T10:29:17.843Z,99589.00
2023-01-04T10:32:12.351Z,99591.00
2023-01-04T10:34:46.032Z,99595.00
2023-01-04T10:37:29.949Z,99589.00
2023-01-04T10:40:01.570Z,99589.00
2023-01-04T10:42:37.157Z,99580.00
2023-01-04T10:45:13.574Z,99580.00
2023-01-04T10:48:13.302Z,99571.00
2023-01-04T10:51:05.027Z,99566.00
2023-01-04T10:53:50.111Z,99575.00
2023-01-04T10:57:02.394Z,99564.00
2023-01-04T10:59:46.189Z,99565.00
2023-01-04T11:02:51.469Z,99567.00
2023-01-04T11:05:34.348Z,99557.00
2023-01-04T11:08:30.342Z,99550.00
2023-01-04T11:11:10.179Z,99549.00
2023-01-04T11:13:41.232Z,99538.00
2023-01-04T11:16:12.265Z,99547.00
2023-01-04T11:18:46.067Z,99542.00
2023-01-04T11:21:23.228Z,99532.00
2023-01-04T11:24:08.278Z,99534.00
2023-01-04T11:26:52.189Z,99531.00
2023-01-04T11:29:51.712Z,99523.00
2023-01-04T11:32:44.601Z,99519.00
2023-01-04T11:35:15.820Z,99514.00
2023-01-04T11:37:46.765Z,99517.00
2023-01-04T11:40:17.601Z,99510.00
2023-01-04T11:43:11.280Z,99511.00
2023-01-04T11:46:12.499Z,99497.00
2023-01-04T11:48:48.193Z,99503.00
2023-01-04T11:51:28.858Z,99501.00
2023-01-04T11:54:06.377Z,99497.00
2023-01-04T11:56:37.699Z,99517.00
2023-01-04T11:59:24.531Z,99506.00
2023-01-04T12:05:28.722Z,99506.00
2023-01-04T12:08:00.232Z,99506.00
2023-01-04T12:10:31.169Z,99506.00
2023-01-04T12:13:02.620Z,99507.00
2023-01-04T12:15:55.350Z,99498.00
2023-01-04T12:18:37.903Z,99489.00
2023-01-04T12:21:22.121Z,99492.00
2023-01-04T12:23:55.067Z,99493.00
2023-01-04T12:26:26.135Z,99485.00
2023-01-04T12:29:24.368Z,99488.00
2023-01-04T12:32:07.275Z,99491.00
2023-01-04T12:34:39.211Z,99487.00
2023-01-04T12:37:42.713Z,99483.00
2023-01-04T12:40:47.909Z,99471.00
2023-01-04T12:43:25.843Z,99462.00
2023-01-04T12:47:04.685Z,99477.00
2023-01-04T12:49:52.606Z,99473.00
2023-01-04T12:52:42.627Z,99471.00
2023-01-04T12:55:32.387Z,99465.00
2023-01-04T12:58:42.229Z,99471.00
2023-01-04T13:01:27.604Z,99466.00
2023-01-04T13:04:27.782Z,99460.00
2023-01-04T13:07:13.455Z,99454.00
2023-01-04T13:09:55.236Z,99458.00
2023-01-04T13:12:53.211Z,99431.00
2023-01-04T13:16:07.012Z,99438.00
2023-01-04T13:18:57.096Z,99439.00
2023-01-04T13:21:44.399Z,99423.00
2023-01-04T13:24:27.468Z,99423.00
2023-01-04T13:27:07.215Z,99426.00
2023-01-04T13:29:40.991Z,99427.00
2023-01-04T13:32:20.677Z,99411.00
2023-01-04T13:34:55.652Z,99429.00
2023-01-04T13:37:27.690Z,99427.00
2023-01-04T13:40:35.643Z,99406.00
2023-01-04T13:43:15.594Z,99410.00
2023-01-04T13:46:18.908Z,99409.00
2023-01-04T13:48:53.620Z,99399.00
2023-01-04T13:51:37.133Z,99406.00
2023-01-04T13:54:21.491Z,99395.00
2023-01-04T13:56:55.871Z,99420.00
2023-01-04T13:59:26.902Z,99394.00
2023-01-04T14:01:57.959Z,99386.00
2023-01-04T14:04:33.753Z,99383.00
2023-01-04T14:07:05.002Z,99374.00
2023-01-04T14:09:54.514Z,99388.00
2023-01-04T14:12:28.731Z,99381.00
2023-01-04T14:15:06.313Z,99381.00
2023-01-04T14:17:52.875Z,99384.00
2023-01-04T14:20:23.742Z,99387.00
2023-01-04T14:22:57.736Z,99380.00
2023-01-04T14:25:49.427Z,99373.00
2023-01-04T14:28:24.854Z,99378.00
2023-01-04T14:31:06.558Z,99378.00
2023-01-04T14:33:48.757Z,99373.00
2023-01-04T14:36:30.142Z,99374.00
2023-01-04T14:39:15.027Z,99368.00
2023-01-04T14:41:48.880Z,99374.00
2023-01-04T14:44:24.338Z,99376.00
2023-01-04T14:47:01.560Z,99377.00
2023-01-04T14:49:32.593Z,99377.00
2023-01-04T14:52:10.686Z,99377.00
2023-01-04T14:54:41.728Z,99369.00
2023-01-04T14:57:12.744Z,99369.00
2023-01-04T14:59:45.875Z,99356.00
2023-01-04T15:02:16.860Z,99350.00
2023-01-04T15:04:47.923Z,99332.00
2023-01-04T15:07:51.552Z,99346.00
2023-01-04T15:10:27.201Z,99344.00
2023-01-04T15:13:00.642Z,99359.00
2023-01-04T15:15:35.119Z,99347.00
2023-01-04T15:18:06.571Z,99348.00
2023-01-04T15:20:40.379Z,99342.00
2023-01-04T15:23:11.504Z,99327.00
2023-01-04T15:25:42.461Z,99328.00
2023-01-04T15:28:14.475Z,99328.00
2023-01-04T15:30:45.375Z,99323.00
2023-01-04T15:33:16.511Z,99328.00
2023-01-04T15:35:47.655Z,99328.00
2023-01-04T15:38:18.837Z,99333.00
2023-01-04T15:40:50.261Z,99312.00
2023-01-04T15:43:22.600Z,99299.00
2023-01-04T15:45:53.532Z,99306.00
2023-01-04T15:48:24.422Z,99324.00
2023-01-04T15:51:04.503Z,99312.00
2023-01-04T15:53:35.741Z,99315.00
2023-01-04T15:56:13.031Z,99289.00
2023-01-04T15:58:43.927Z,99307.00
2023-01-04T16:01:16.747Z,99312.00
2023-01-04T16:03:51.504Z,99305.00
2023-01-04T16:06:24.986Z,99314.00
2023-01-04T16:08:58.939Z,99335.00
2023-01-04T16:11:29.928Z,99308.00
2023-01-04T16:14:01.143Z,99304.00
2023-01-04T16:16:32.690Z,99321.00
2023-01-04T16:19:03.839Z,99294.00
2023-01-04T16:21:34.710Z,99299.00
2023-01-04T16:24:17.221Z,99300.00
2023-01-04T16:26:58.345Z,99292.00
2023-01-04T16:29:29.246Z,99294.00
2023-01-04T16:32:00.257Z,99287.00
2023-01-04T16:34:31.339Z,99288.00
2023-01-04T16:37:02.613Z,99289.00
2023-01-04T16:40:05.194Z,99288.00
2023-01-04T16:42:26.224Z,99286.00
2023-01-04T16:44:57.127Z,99281.00
2023-01-04T16:47:28.113Z,99281.00
2023-01-04T16:49:58.979Z,99283.00
2023-01-04T16:52:30.131Z,99273.00
2023-01-04T16:55:01.036Z,99271.00
2023-01-04T16:57:31.957Z,99275.00
2023-01-04T17:00:04.209Z,99272.00
2023-01-04T17:02:35.173Z,99286.00
2023-01-04T17:05:06.575Z,99281.00
2023-01-04T17:07:37.493Z,99281.00
2023-01-04T17:10:09.167Z,99282.00
2023-01-04T17:12:48.820Z,99275.00
2023-01-04T17:18:12.659Z,99270.00
2023-01-04T17:20:52.414Z,99269.00
2023-01-04T17:23:26.219Z,99275.00
2023-01-04T17:26:03.296Z,99269.00
2023-01-04T17:28:34.954Z,99260.00
2023-01-04T17:31:10.158Z,99285.00
2023-01-04T17:33:41.450Z,99261.00
2023-01-04T17:36:14.418Z,99252.00
2023-01-04T17:38:46.038Z,99252.00
2023-01-04T17:41:18.372Z,99258.00
2023-01-04T17:43:53.000Z,99254.00
2023-01-04T17:46:25.315Z,99264.00
2023-01-04T17:49:21.171Z,99258.00
2023-01-04T17:51:47.526Z,99254.00
2023-01-04T17:54:18.516Z,99259.00
2023-01-04T17:56:49.373Z,99245.00
2023-01-04T17:59:20.689Z,99244.00
2023-01-04T18:01:51.666Z,99241.00
2023-01-04T18:04:22.738Z,99247.00
2023-01-04T18:06:53.674Z,99248.00
2023-01-04T18:09:27.149Z,99249.00
2023-01-04T18:11:58.070Z,99245.00
2023-01-04T18:14:29.007Z,99248.00
2023-01-04T18:16:59.920Z,99250.00
2023-01-04T18:19:31.481Z,99241.00
2023-01-04T18:22:02.718Z,99232.00
2023-01-04T18:24:36.852Z,99238.00
2023-01-04T18:27:27.678Z,99252.00
2023-01-04T18:29:58.729Z,99238.00
2023-01-04T18:32:29.614Z,99239.00
2023-01-04T18:35:05.168Z,99243.00
2023-01-04T18:37:36.151Z,99254.00
2023-01-04T18:40:08.262Z,99252.00
2023-01-04T18:42:39.140Z,99244.00
2023-01-04T18:45:10.636Z,99249.00
2023-01-04T18:47:41.543Z,99248.00
2023-01-04T18:50:12.457Z,99242.00
2023-01-04T18:52:44.310Z,99245.00
2023-01-04T18:55:15.554Z,99254.00
2023-01-04T18:57:46.419Z,99256.00
2023-01-04T19:00:17.980Z,99244.00
2023-01-04T19:02:49.146Z,99251.00
2023-01-04T19:05:20.126Z,99255.00
2023-01-04T19:07:51.217Z,99257.00
2023-01-04T19:10:22.193Z,99250.00
2023-01-04T19:12:53.055Z,99247.00
2023-01-04T19:15:24.262Z,99255.00
2023-01-04T19:17:55.135Z,99271.00
2023-01-04T19:20:26.289Z,99246.00
2023-01-04T19:22:57.259Z,99244.00
2023-01-04T19:25:28.752Z,99249.00
2023-01-04T19:27:59.684Z,99245.00
2023-01-04T19:30:30.926Z,99256.00
2023-01-04T19:33:01.919Z,99270.00
2023-01-04T19:35:33.184Z,99248.00
2023-01-04T19:38:04.072Z,99264.00
2023-01-04T19:40:35.432Z,99254.00
2023-01-04T19:43:06.916Z,99268.00
2023-01-04T19:45:41.827Z,99275.00
2023-01-04T19:48:12.753Z,99268.00
2023-01-04T19:50:43.807Z,99261.00
2023-01-04T19:53:14.664Z,99275.00
2023-01-04T19:55:45.627Z,99279.00
2023-01-04T19:58:17.637Z,99277.00
2023-01-04T20:00:54.530Z,99285.00
2023-01-04T20:03:26.432Z,99272.00
2023-01-04T20:06:05.836Z,99270.00
2023-01-04T20:08:39.955Z,99276.00
2023-01-04T20:11:12.019Z,99287.00
2023-01-04T20:13:42.994Z,99285.00
2023-01-04T20:16:13.987Z,99293.00
2023-01-04T20:18:45.108Z,99294.00
2023-01-04T20:21:16.188Z,99297.00
2023-01-04T20:23:47.090Z,99299.00
2023-01-04T20:26:19.330Z,99295.00
2023-01-04T20:28:50.278Z,99286.00
2023-01-04T20:31:21.334Z,99296.00
2023-01-04T20:33:52.557Z,99289.00
2023-01-04T20:36:29.451Z,99292.00
2023-01-04T20:39:02.592Z,99288.00
2023-01-04T20:41:33.715Z,99295.00
2023-01-04T20:44:04.741Z,99295.00
2023-01-04T20:46:35.627Z,99296.00
2023-01-04T20:49:06.589Z,99279.00
2023-01-04T20:51:37.460Z,99285.00
2023-01-04T20:54:08.341Z,99281.00
2023-01-04T20:56:43.637Z,99289.00
2023-01-04T20:59:14.529Z,99289.00
2023-01-04T21:01:45.466Z,99279.00
2023-01-04T21:04:17.745Z,99274.00
2023-01-04T21:06:48.631Z,99310.00
2023-01-04T21:09:19.550Z,99277.00
2023-01-04T21:11:50.457Z,99289.00
2023-01-04T21:14:21.464Z,99283.00
2023-01-04T21:16:52.351Z,99278.00
2023-01-04T21:19:23.298Z,99289.00
2023-01-04T21:21:54.187Z,99284.00
2023-01-04T21:24:25.089Z,99288.00
2023-01-04T21:26:58.872Z,99280.00
2023-01-04T21:29:35.713Z,99275.00
2023-01-04T21:32:06.791Z,99296.00
2023-01-04T21:34:37.742Z,99281.00
2023-01-04T21:37:08.601Z,99285.00
2023-01-04T21:39:39.547Z,99276.00
2023-01-04T21:42:10.439Z,99290.00
2023-01-04T21:44:42.703Z,99269.00
2023-01-04T21:47:13.569Z,99273.00
2023-01-04T21:49:44.444Z,99274.00
2023-01-04T21:52:15.318Z,99272.00
2023-01-04T21:54:46.216Z,99265.00
2023-01-04T21:57:17.192Z,99282.00
2023-01-04T21:59:48.189Z,99255.00
2023-01-04T22:02:20.410Z,99253.00
2023-01-04T22:04:51.427Z,99247.00
2023-01-04T22:07:22.493Z,99248.00
2023-01-04T22:09:57.460Z,99238.00
2023-01-04T22:12:28.716Z,99225.00
2023-01-04T22:14:59.682Z,99224.00
2023-01-04T22:17:30.548Z,99229.00
2023-01-04T22:20:01.461Z,99229.00
2023-01-04T22:22:32.359Z,99239.00
2023-01-04T22:25:03.327Z,99220.00
2023-01-04T22:27:34.415Z,99206.00
2023-01-04T22:30:06.874Z,99190.00
2023-01-04T22:32:37.729Z,99201.00
2023-01-04T22:35:09.789Z,99200.00
2023-01-04T22:37:40.715Z,99207.00
2023-01-04T22:40:13.099Z,99216.00
2023-01-04T22:42:43.992Z,99204.00
2023-01-04T22:45:14.933Z,99203.00
2023-01-04T22:47:45.810Z,99205.00
2023-01-04T22:50:17.207Z,99206.00
2023-01-04T22:52:51.156Z,99209.00
2023-01-04T22:55:23.120Z,99209.00
2023-01-04T22:57:54.049Z,99202.00
2023-01-04T23:00:25.033Z,99193.00
2023-01-04T23:02:55.983Z,99190.00
2023-01-04T23:05:26.926Z,99186.00
2023-01-04T23:07:58.092Z,99188.00
2023-01-04T23:10:28.965Z,99174.00
2023-01-04T23:12:59.850Z,99178.00
2023-01-04T23:15:31.431Z,99174.00
2023-01-04T23:18:02.302Z,99179.00
2023-01-04T23:20:33.301Z,99177.00
2023-01-04T23:23:04.215Z,99169.00
2023-01-04T23:25:35.170Z,99165.00
2023-01-04T23:28:06.092Z,99165.00
2023-01-04T23:30:39.563Z,99163.00
2023-01-04T23:33:11.240Z,99163.00
2023-01-04T23:35:42.115Z,99148.00
2023-01-04T23:38:13.006Z,99155.00
2023-01-04T23:40:48.475Z,99162.00
2023-01-04T23:43:19.402Z,99149.00
2023-01-04T23:45:50.271Z,99163.00
2023-01-04T23:48:21.167Z,99145.00
2023-01-04T23:50:56.889Z,99152.00
2023-01-04T23:53:27.781Z,99151.00
2023-01-04T23:56:05.133Z,99142.00
2023-01-04T23:58:36.080Z,99133.00
